Time;durP1;ratioP1;P1;durP2;ratioP2;P2;SDS_P1;SDS_P2;PMS_P1;PMS_P2;Temp;Humidity;BMP_temperature;BMP_pressure;BME280_temperature;BME280_humidity;BME280_pressure;Samples;Min_cycle;Max_cycle;Signal;HPM_P1;HPM_P2
2023/01/30 05:22:32;;;;;;;4.18;2.85;;;;;;;0.39;88.67;100849.25;5109027;27;20842;-68
2023/01/30 05:24:57;;;;;;;6.85;3.85;;;;;;;0.47;87.92;100850.47;5107943;28;20039;-67
2023/01/30 05:27:23;;;;;;;3.92;2.50;;;;;;;0.49;87.69;100847.75;5107643;28;20107;-68
2023/01/30 05:29:48;;;;;;;5.50;3.53;;;;;;;0.50;88.70;100854.69;5109287;28;20039;-68
2023/01/30 05:32:15;;;;;;;4.95;2.58;;;;;;;0.56;88.63;100864.78;5109169;28;20480;-67
2023/01/30 05:34:41;;;;;;;4.13;2.53;;;;;;;0.55;87.73;100855.25;5129237;22;20050;-65
2023/01/30 05:37:06;;;;;;;3.65;2.08;;;;;;;0.58;87.51;100852.44;5088735;28;20036;-66
2023/01/30 05:39:32;;;;;;;2.47;2.28;;;;;;;0.59;87.81;100834.91;5088341;28;20123;-66
2023/01/30 05:41:57;;;;;;;3.63;2.15;;;;;;;0.60;87.20;100829.59;5088617;28;20052;-66
2023/01/30 05:44:23;;;;;;;3.60;2.47;;;;;;;0.64;87.59;100823.19;5088662;28;20443;-66
2023/01/30 05:46:48;;;;;;;4.57;3.38;;;;;;;0.59;88.22;100834.91;5108890;28;20039;-65
2023/01/30 05:49:14;;;;;;;5.13;3.00;;;;;;;0.56;88.33;100840.34;5107211;28;20046;-66
2023/01/30 05:51:40;;;;;;;3.10;2.80;;;;;;;0.51;88.85;100833.59;5108751;28;20032;-66
2023/01/30 05:54:05;;;;;;;7.30;3.38;;;;;;;0.59;88.47;100837.53;5108737;28;20039;-67
2023/01/30 05:56:32;;;;;;;7.93;3.88;;;;;;;0.58;88.48;100841.94;5108526;28;20071;-66
2023/01/30 05:58:58;;;;;;;3.75;2.55;;;;;;;0.57;88.30;100834.16;5108510;28;20036;-66
2023/01/30 06:01:24;;;;;;;5.50;3.40;;;;;;;0.54;88.64;100829.97;5110550;28;20080;-66
2023/01/30 06:03:50;;;;;;;3.25;2.58;;;;;;;0.61;88.77;100841.75;5113893;28;20046;-66
2023/01/30 06:06:16;;;;;;;4.63;2.83;;;;;;;0.59;88.26;100819.19;5109531;28;20028;-67
2023/01/30 06:08:41;;;;;;;4.53;3.05;;;;;;;0.59;89.24;100825.28;5107082;28;20408;-66
2023/01/30 06:11:10;;;;;;;3.33;2.58;;;;;;;0.61;88.96;100828.66;5108534;28;20374;-66
2023/01/30 06:13:37;;;;;;;4.38;2.85;;;;;;;0.53;90.32;100823.06;5108390;28;20078;-66
2023/01/30 06:16:03;;;;;;;6.28;2.92;;;;;;;0.59;91.59;100824.41;5108329;28;20044;-65
2023/01/30 06:18:29;;;;;;;4.53;2.75;;;;;;;0.53;90.99;100825.66;5107946;28;20040;-66
2023/01/30 06:20:54;;;;;;;2.55;1.45;;;;;;;0.44;91.12;100818.34;5108189;28;20042;-67
2023/01/30 06:23:23;;;;;;;3.95;2.65;;;;;;;0.46;91.54;100816.50;5106892;28;20408;-66
2023/01/30 06:25:50;;;;;;;4.20;2.70;;;;;;;0.48;91.48;100804.13;5108192;28;20454;-66
2023/01/30 06:28:16;;;;;;;4.47;2.93;;;;;;;0.48;90.99;100815.47;5107836;28;20412;-66
2023/01/30 06:30:42;;;;;;;3.55;2.92;;;;;;;0.51;91.75;100820.50;5107944;28;20162;-67
2023/01/30 06:33:08;;;;;;;4.93;3.13;;;;;;;0.51;90.96;100819.66;5098756;28;20067;-66
2023/01/30 06:35:35;;;;;;;5.68;2.83;;;;;;;0.48;91.95;100815.47;5094227;28;20075;-66
2023/01/30 06:38:01;;;;;;;4.55;2.35;;;;;;;0.54;90.78;100809.00;5093985;28;20039;-66
2023/01/30 06:40:26;;;;;;;6.40;3.00;;;;;;;0.50;91.32;100812.75;5094355;28;20191;-63
2023/01/30 06:42:51;;;;;;;6.88;2.63;;;;;;;0.56;91.25;100808.91;5094340;28;20040;-66
2023/01/30 06:45:18;;;;;;;4.32;2.45;;;;;;;0.53;91.23;100825.66;5094168;28;20036;-65
2023/01/30 06:47:49;;;;;;;3.13;2.40;;;;;;;0.54;92.11;100809.00;5094017;28;20034;-66
2023/01/30 06:50:16;;;;;;;5.13;2.67;;;;;;;0.59;92.02;100809.56;5092418;28;20066;-64
2023/01/30 06:52:43;;;;;;;3.30;2.67;;;;;;;0.54;91.41;100816.88;5093721;28;20070;-66
2023/01/30 06:55:10;;;;;;;3.38;2.75;;;;;;;0.61;91.14;100820.78;5092609;28;20040;-64
2023/01/30 06:57:35;;;;;;;2.95;2.63;;;;;;;0.66;90.97;100825.75;5093769;28;20115;-65
2023/01/30 07:00:08;;;;;;;2.53;2.33;;;;;;;0.68;90.10;100831.72;5093881;28;20121;-63
2023/01/30 07:02:34;;;;;;;8.20;3.38;;;;;;;0.67;90.64;100830.06;5093733;28;20101;-64
2023/01/30 07:05:05;;;;;;;5.28;3.15;;;;;;;0.68;89.56;100839.59;5093659;28;20043;-65
2023/01/30 07:07:31;;;;;;;4.75;3.13;;;;;;;0.71;89.33;100826.28;5093408;28;20510;-65
2023/01/30 07:09:58;;;;;;;6.35;2.85;;;;;;;0.73;89.41;100834.91;5093642;28;20059;-66
2023/01/30 07:12:24;;;;;;;3.53;2.42;;;;;;;0.79;88.86;100848.50;5093531;28;20476;-63
2023/01/30 07:14:51;;;;;;;5.75;3.08;;;;;;;0.80;89.42;100846.72;5093722;28;20480;-66
2023/01/30 07:17:17;;;;;;;3.35;2.58;;;;;;;0.78;89.25;100849.44;5093369;28;20047;-65
2023/01/30 07:19:43;;;;;;;5.47;2.70;;;;;;;0.83;88.43;100849.13;5093461;28;20048;-65
2023/01/30 07:22:09;;;;;;;3.42;2.40;;;;;;;0.84;87.59;100849.97;5093469;28;20034;-65
2023/01/30 07:24:34;;;;;;;4.85;3.25;;;;;;;0.82;88.24;100850.91;5092084;28;20109;-65
2023/01/30 07:27:00;;;;;;;4.10;2.72;;;;;;;0.87;88.58;100873.41;5093291;28;20114;-63
2023/01/30 07:29:25;;;;;;;3.25;2.47;;;;;;;0.85;90.04;100867.38;5093192;28;20434;-63
2023/01/30 07:31:51;;;;;;;2.20;1.80;;;;;;;0.86;90.48;100869.94;5093156;28;20495;-64
2023/01/30 07:34:16;;;;;;;5.20;3.03;;;;;;;0.85;90.06;100880.50;5092057;28;20124;-64
2023/01/30 07:36:42;;;;;;;2.88;2.28;;;;;;;0.84;89.72;100877.03;5091640;28;20173;-64
2023/01/30 07:39:08;;;;;;;3.80;2.33;;;;;;;0.87;89.58;100883.88;5091235;28;20565;-64
2023/01/30 07:41:34;;;;;;;5.13;2.92;;;;;;;0.90;89.19;100883.69;5093156;28;20032;-64
2023/01/30 07:44:00;;;;;;;3.30;2.10;;;;;;;0.94;89.31;100880.78;5092311;28;20040;-64
2023/01/30 07:46:27;;;;;;;5.22;2.88;;;;;;;0.90;89.93;100868.78;5093180;28;20085;-64
2023/01/30 07:48:52;;;;;;;3.97;2.75;;;;;;;0.87;90.06;100866.38;5092904;28;20058;-63
2023/01/30 07:51:18;;;;;;;3.28;1.85;;;;;;;0.85;90.67;100842.03;5093443;28;20568;-63
2023/01/30 07:53:43;;;;;;;2.95;1.90;;;;;;;0.84;91.17;100842.94;5095319;28;20082;-64
2023/01/30 07:56:13;;;;;;;5.75;2.80;;;;;;;0.84;91.38;100842.09;5093230;28;20046;-63
2023/01/30 07:58:38;;;;;;;5.35;3.05;;;;;;;0.77;92.05;100837.22;5091793;28;20400;-64
2023/01/30 08:01:04;;;;;;;2.90;2.35;;;;;;;0.83;92.02;100830.75;5091944;28;20039;-64
2023/01/30 08:03:29;;;;;;;8.70;2.90;;;;;;;0.78;92.19;100827.59;5092668;28;20047;-64
2023/01/30 08:05:55;;;;;;;3.85;2.53;;;;;;;0.87;92.04;100840.13;5092627;28;20032;-64
2023/01/30 08:08:20;;;;;;;3.97;2.92;;;;;;;0.88;92.32;100841.81;5091724;28;20059;-64
2023/01/30 08:10:48;;;;;;;5.97;3.15;;;;;;;0.90;92.23;100849.56;5092149;28;20043;-64
2023/01/30 08:13:13;;;;;;;8.05;3.60;;;;;;;0.85;92.14;100823.66;5093053;28;20401;-64
2023/01/30 08:15:38;;;;;;;5.40;3.17;;;;;;;0.92;91.63;100840.69;5092873;28;20050;-64
2023/01/30 08:18:06;;;;;;;3.58;2.85;;;;;;;0.95;91.79;100842.28;5091089;28;20040;-64
2023/01/30 08:20:31;;;;;;;3.13;2.43;;;;;;;0.97;91.60;100841.22;5091464;28;20400;-64
2023/01/30 08:22:58;;;;;;;3.72;2.60;;;;;;;1.00;90.72;100848.06;5092678;28;20288;-64
2023/01/30 08:25:23;;;;;;;3.63;2.35;;;;;;;1.04;89.93;100849.53;5092487;28;20040;-64
2023/01/30 08:27:49;;;;;;;4.40;2.72;;;;;;;1.06;89.51;100856.41;5092268;28;20107;-64
2023/01/30 08:30:15;;;;;;;4.95;2.60;;;;;;;1.13;89.68;100846.34;5091215;28;20473;-64
2023/01/30 08:32:40;;;;;;;5.55;2.47;;;;;;;1.13;89.62;100843.72;5092457;28;20032;-63
2023/01/30 08:35:06;;;;;;;5.00;2.53;;;;;;;1.19;89.78;100853.84;5092226;28;20036;-63
2023/01/30 08:37:32;;;;;;;5.95;3.00;;;;;;;1.14;91.01;100855.06;5092098;28;20393;-63
2023/01/30 08:39:57;;;;;;;4.53;2.97;;;;;;;1.15;91.02;100848.88;5091188;28;20058;-64
2023/01/30 08:42:22;;;;;;;3.95;2.67;;;;;;;1.17;90.13;100845.19;5092307;28;20090;-63
2023/01/30 08:44:48;;;;;;;2.63;2.13;;;;;;;1.17;90.36;100834.69;5073765;28;20043;-63
2023/01/30 08:47:14;;;;;;;3.58;2.35;;;;;;;1.21;90.54;100836.19;5090566;28;20198;-63
2023/01/30 08:49:39;;;;;;;3.65;2.33;;;;;;;1.22;91.10;100822.13;5092370;28;20510;-63
2023/01/30 08:52:05;;;;;;;6.10;2.28;;;;;;;1.11;91.99;100824.63;5092050;28;20119;-62
2023/01/30 08:54:30;;;;;;;4.32;2.75;;;;;;;1.11;92.23;100808.88;5091878;28;20039;-61
2023/01/30 08:56:55;;;;;;;4.28;3.05;;;;;;;1.19;94.21;100800.50;5091729;28;20051;-54
2023/01/30 08:59:21;;;;;;;5.20;2.13;;;;;;;1.22;93.88;100801.13;5092559;28;20036;-55
2023/01/30 09:01:46;;;;;;;5.15;3.10;;;;;;;1.17;93.18;100789.25;5092005;28;20365;-54
2023/01/30 09:04:11;;;;;;;3.95;3.10;;;;;;;1.21;92.42;100801.22;5091837;28;20036;-63
2023/01/30 09:06:37;;;;;;;5.50;2.13;;;;;;;1.21;92.76;100793.38;5091687;28;20043;-64
2023/01/30 09:09:02;;;;;;;3.13;2.28;;;;;;;1.21;91.70;100788.13;5091879;28;20044;-62
2023/01/30 09:11:28;;;;;;;3.25;1.90;;;;;;;1.24;91.20;100787.91;5074198;28;20123;-61
2023/01/30 09:13:53;;;;;;;2.15;1.75;;;;;;;1.28;91.61;100800.72;5091649;28;20465;-63
2023/01/30 09:16:19;;;;;;;4.13;3.05;;;;;;;1.31;91.06;100797.91;5091626;28;20047;-63
2023/01/30 09:18:44;;;;;;;5.45;2.58;;;;;;;1.32;91.78;100790.88;5091476;28;20234;-63
2023/01/30 09:21:11;;;;;;;6.15;3.40;;;;;;;1.39;91.54;100813.16;5091729;28;20043;-63
2023/01/30 09:23:37;;;;;;;3.13;2.43;;;;;;;1.40;92.24;100799.09;5091769;28;20081;-63
2023/01/30 09:26:03;;;;;;;4.03;2.60;;;;;;;1.40;91.99;100793.00;5091620;28;20052;-63
2023/01/30 09:28:29;;;;;;;5.25;2.20;;;;;;;1.45;91.66;100785.66;5091319;28;20122;-64
2023/01/30 09:31:01;;;;;;;4.88;3.55;;;;;;;1.49;91.93;100795.84;5091519;28;20043;-63
2023/01/30 09:33:27;;;;;;;3.80;2.25;;;;;;;1.52;92.36;100806.16;5091413;28;20476;-64
2023/01/30 09:35:52;;;;;;;8.55;2.65;;;;;;;1.50;91.59;100800.19;5091329;28;20043;-63
2023/01/30 09:38:18;;;;;;;4.38;2.97;;;;;;;1.50;92.79;100801.94;5091203;28;20504;-63
2023/01/30 09:40:58;;;;;;;4.85;2.83;;;;;;;1.46;92.50;100785.56;5091493;28;20028;-61
2023/01/30 09:43:58;;;;;;;3.28;2.22;;;;;;;1.53;92.82;100784.22;5090248;28;20485;-63
2023/01/30 09:46:38;;;;;;;6.53;2.85;;;;;;;1.54;92.47;100772.75;5091494;28;20039;-62
2023/01/30 09:49:04;;;;;;;5.75;2.90;;;;;;;1.56;92.00;100775.28;5091306;28;20097;-63
2023/01/30 09:51:33;;;;;;;7.45;2.85;;;;;;;1.60;92.94;100777.59;5091567;28;20028;-61
2023/01/30 09:54:15;;;;;;;4.05;2.75;;;;;;;1.61;93.24;100765.31;5091417;28;20032;-63
2023/01/30 09:56:40;;;;;;;5.00;3.00;;;;;;;1.59;93.54;100775.91;5091461;28;20390;-63
2023/01/30 09:59:14;;;;;;;4.07;2.30;;;;;;;1.55;94.48;100766.56;5091179;28;20060;-61
2023/01/30 10:01:57;;;;;;;4.13;2.85;;;;;;;1.57;95.06;100769.94;5091599;28;20065;-62
2023/01/30 10:04:35;;;;;;;4.65;2.50;;;;;;;1.55;96.43;100776.22;5090527;28;20036;-62
2023/01/30 10:07:06;;;;;;;6.72;3.38;;;;;;;1.52;97.52;100776.44;5091465;28;20047;-63
2023/01/30 10:09:53;;;;;;;5.32;3.45;;;;;;;1.53;98.45;100778.94;5095148;28;20089;-65
2023/01/30 10:12:41;;;;;;;4.65;3.08;;;;;;;1.60;98.77;100774.13;5095069;28;20043;-65
2023/01/30 10:15:18;;;;;;;4.10;2.63;;;;;;;1.70;99.07;100769.97;5095034;28;20085;-63
2023/01/30 10:18:17;;;;;;;5.00;3.03;;;;;;;1.74;100.00;100770.56;5094862;28;20048;-64
2023/01/30 10:21:07;;;;;;;6.80;3.72;;;;;;;1.74;99.83;100773.19;5094780;28;20543;-63
2023/01/30 10:24:10;;;;;;;5.47;2.95;;;;;;;1.77;100.00;100762.50;5095180;28;20032;-63
2023/01/30 10:26:40;;;;;;;3.53;2.42;;;;;;;1.77;100.00;100763.34;5094686;28;20036;-65
2023/01/30 10:29:29;;;;;;;7.10;2.85;;;;;;;1.86;100.00;100769.75;5094468;28;20126;-66
2023/01/30 10:32:08;;;;;;;6.88;3.17;;;;;;;1.82;100.00;100758.59;5094366;28;20197;-66
2023/01/30 10:34:38;;;;;;;6.07;3.10;;;;;;;1.79;100.00;100763.22;5094319;28;20043;-66
2023/01/30 10:37:12;;;;;;;7.22;3.00;;;;;;;1.80;100.00;100749.97;5094445;28;20055;-65
2023/01/30 10:39:48;;;;;;;4.13;2.45;;;;;;;1.81;100.00;100728.00;5094485;28;20042;-64
2023/01/30 10:42:21;;;;;;;6.10;2.95;;;;;;;1.82;100.00;100734.09;5094592;28;20070;-64
2023/01/30 10:44:47;;;;;;;4.47;2.90;;;;;;;1.82;100.00;100737.56;5094485;28;20554;-63
2023/01/30 10:47:23;;;;;;;6.57;2.83;;;;;;;1.86;100.00;100728.53;5094280;28;20111;-64
2023/01/30 10:50:11;;;;;;;4.65;2.90;;;;;;;1.98;100.00;100732.13;5094384;28;20036;-62
2023/01/30 10:53:06;;;;;;;2.22;2.03;;;;;;;1.88;100.00;100745.03;5088557;28;20044;-61
2023/01/30 10:55:42;;;;;;;5.53;3.20;;;;;;;1.93;100.00;100749.97;5094403;28;20051;-64
2023/01/30 10:58:18;;;;;;;6.53;2.45;;;;;;;1.90;100.00;100747.59;5092677;28;20036;-64
2023/01/30 11:01:00;;;;;;;4.05;2.63;;;;;;;2.02;100.00;100744.09;5094010;28;20496;-64
2023/01/30 11:03:47;;;;;;;7.05;2.40;;;;;;;1.92;100.00;100753.56;5094148;28;20040;-62
2023/01/30 11:06:23;;;;;;;3.53;2.75;;;;;;;1.96;100.00;100754.19;5094158;28;20040;-63
2023/01/30 11:08:49;;;;;;;3.35;2.25;;;;;;;1.96;100.00;100749.78;5093704;28;20403;-62
2023/01/30 11:11:26;;;;;;;3.90;2.38;;;;;;;2.03;100.00;100755.47;5094095;28;20032;-62
2023/01/30 11:14:06;;;;;;;3.42;2.72;;;;;;;1.95;100.00;100757.75;5094028;28;20480;-64
2023/01/30 11:16:42;;;;;;;5.55;3.42;;;;;;;1.94;100.00;100753.44;5093950;28;20032;-65
2023/01/30 11:19:08;;;;;;;4.28;2.58;;;;;;;1.97;100.00;100751.47;5093538;28;20035;-62
2023/01/30 11:21:35;;;;;;;4.03;2.42;;;;;;;1.99;100.00;100748.72;5094098;28;20032;-63
2023/01/30 11:24:10;;;;;;;4.00;2.42;;;;;;;1.95;100.00;100734.94;5093700;28;20074;-64
2023/01/30 11:26:36;;;;;;;3.88;2.30;;;;;;;1.88;100.00;100742.41;5093583;28;20053;-63
2023/01/30 11:29:28;;;;;;;2.97;2.20;;;;;;;1.85;100.00;100755.78;5093379;28;20514;-64
2023/01/30 11:31:55;;;;;;;3.90;2.05;;;;;;;1.75;100.00;100744.19;5078922;28;20040;-64
2023/01/30 11:34:23;;;;;;;5.45;2.72;;;;;;;1.79;100.00;100748.31;5073550;28;20044;-64
2023/01/30 11:36:48;;;;;;;3.47;1.77;;;;;;;1.71;100.00;100729.59;5095738;22;20044;-63
2023/01/30 11:39:16;;;;;;;3.88;2.80;;;;;;;1.80;100.00;100730.75;5073045;28;20040;-63
2023/01/30 11:41:57;;;;;;;4.10;2.70;;;;;;;1.74;100.00;100731.16;5072462;28;20036;-63
2023/01/30 11:44:54;;;;;;;3.55;2.20;;;;;;;1.68;100.00;100736.84;5072192;28;20397;-61
2023/01/30 11:47:28;;;;;;;4.88;2.33;;;;;;;1.72;100.00;100733.06;5051536;28;20052;-60
2023/01/30 11:50:01;;;;;;;3.50;1.90;;;;;;;1.76;100.00;100743.28;5053437;28;20045;-60
2023/01/30 11:52:35;;;;;;;5.15;2.88;;;;;;;1.69;100.00;100726.22;5053094;28;20098;-61
2023/01/30 11:55:06;;;;;;;5.93;3.20;;;;;;;1.72;100.00;100725.19;5052971;28;20033;-61
2023/01/30 11:57:57;;;;;;;5.50;3.20;;;;;;;1.75;100.00;100727.59;5052597;28;20036;-60
2023/01/30 12:00:26;;;;;;;3.63;2.85;;;;;;;1.77;100.00;100744.94;5052845;28;20102;-58
2023/01/30 12:02:53;;;;;;;7.10;3.25;;;;;;;1.73;100.00;100742.63;5052967;28;20094;-63
2023/01/30 12:05:31;;;;;;;3.45;2.10;;;;;;;1.63;100.00;100751.16;5052721;28;20040;-61
2023/01/30 12:08:15;;;;;;;4.13;2.95;;;;;;;1.64;100.00;100736.22;5034586;28;20497;-57
2023/01/30 12:10:43;;;;;;;6.13;3.40;;;;;;;1.65;100.00;100726.56;5052661;28;20575;-61
2023/01/30 12:13:31;;;;;;;5.90;3.17;;;;;;;1.63;100.00;100739.81;5052562;28;20087;-62
2023/01/30 12:16:11;;;;;;;6.55;3.38;;;;;;;1.58;100.00;100747.16;5039561;28;20135;-62
2023/01/30 12:19:00;;;;;;;3.17;2.75;;;;;;;1.49;100.00;100737.25;5052244;28;20037;-61
2023/01/30 12:21:58;;;;;;;8.20;3.88;;;;;;;1.51;100.00;100738.00;5051711;28;20073;-61
2023/01/30 12:24:31;;;;;;;6.70;2.72;;;;;;;1.50;100.00;100728.41;5051364;28;20098;-61
2023/01/30 12:27:04;;;;;;;5.03;3.72;;;;;;;1.44;100.00;100728.84;5049928;28;20040;-63
2023/01/30 12:29:33;;;;;;;6.35;3.45;;;;;;;1.50;100.00;100731.03;5052006;28;20048;-60
2023/01/30 12:32:06;;;;;;;5.43;3.08;;;;;;;1.46;100.00;100729.59;5051498;28;20402;-63
2023/01/30 12:34:31;;;;;;;5.15;3.17;;;;;;;1.55;100.00;100739.47;5031935;28;20032;-62
2023/01/30 12:37:23;;;;;;;7.90;3.65;;;;;;;1.46;100.00;100740.94;5034013;28;20044;-63
2023/01/30 12:40:00;;;;;;;3.45;2.25;;;;;;;1.50;100.00;100731.03;5013376;28;20048;-63
2023/01/30 12:42:37;;;;;;;6.97;4.07;;;;;;;1.50;100.00;100729.28;5052560;28;20041;-63
2023/01/30 12:45:27;;;;;;;3.65;2.33;;;;;;;1.47;100.00;100745.22;5050902;28;20111;-63
2023/01/30 12:48:30;;;;;;;6.40;3.60;;;;;;;1.46;100.00;100746.19;5051509;28;20037;-63
2023/01/30 12:51:20;;;;;;;4.50;2.78;;;;;;;1.42;100.00;100751.72;5049806;28;20043;-63
2023/01/30 12:54:01;;;;;;;3.67;2.58;;;;;;;1.38;100.00;100747.63;5051014;28;20041;-62
2023/01/30 12:56:43;;;;;;;7.25;3.22;;;;;;;1.34;100.00;100762.75;5033721;28;20127;-62
2023/01/30 12:59:20;;;;;;;5.68;3.47;;;;;;;1.33;100.00;100761.06;5051050;28;20033;-60
2023/01/30 13:01:51;;;;;;;6.05;3.55;;;;;;;1.38;100.00;100772.09;5048988;28;20482;-58
2023/01/30 13:04:44;;;;;;;5.07;2.80;;;;;;;1.34;100.00;100770.63;5051383;28;20029;-60
2023/01/30 13:07:16;;;;;;;6.88;3.90;;;;;;;1.35;100.00;100769.66;5049149;28;20043;-63
2023/01/30 13:10:03;;;;;;;5.30;2.55;;;;;;;1.42;100.00;100772.72;5051287;28;20490;-62
2023/01/30 13:13:00;;;;;;;5.32;4.15;;;;;;;1.34;100.00;100776.69;5049194;28;20080;-58
2023/01/30 13:15:39;;;;;;;4.43;2.97;;;;;;;1.37;100.00;100786.19;5048618;28;20055;-62
2023/01/30 13:18:24;;;;;;;7.72;3.28;;;;;;;1.36;100.00;100785.31;5048269;28;20474;-57
2023/01/30 13:21:00;;;;;;;6.75;3.45;;;;;;;1.38;100.00;100781.78;5049290;28;20091;-56
2023/01/30 13:23:58;;;;;;;8.95;3.30;;;;;;;1.39;100.00;100786.06;5048748;28;20413;-63
2023/01/30 13:26:29;;;;;;;6.25;3.50;;;;;;;1.39;100.00;100775.56;5050973;28;20037;-63
2023/01/30 13:29:02;;;;;;;4.38;3.55;;;;;;;1.44;100.00;100768.25;5051180;28;20033;-62
2023/01/30 13:31:31;;;;;;;5.95;3.50;;;;;;;1.43;100.00;100771.78;5048812;28;20178;-63
2023/01/30 13:34:10;;;;;;;5.80;3.30;;;;;;;1.47;100.00;100778.53;5051178;28;20029;-63
2023/01/30 13:36:44;;;;;;;5.25;3.50;;;;;;;1.49;100.00;100777.47;5049766;28;20036;-61
2023/01/30 13:39:31;;;;;;;4.20;2.80;;;;;;;1.58;100.00;100792.63;5048950;28;20036;-62
2023/01/30 13:42:00;;;;;;;4.55;3.33;;;;;;;1.66;100.00;100784.22;5049962;28;20051;-64
2023/01/30 13:44:29;;;;;;;4.55;2.80;;;;;;;1.65;100.00;100792.22;5052423;28;20049;-63
2023/01/30 13:46:58;;;;;;;6.43;3.53;;;;;;;1.64;100.00;100812.38;5054748;28;20064;-63
2023/01/30 13:49:39;;;;;;;6.22;3.50;;;;;;;1.65;100.00;100814.06;5052546;28;20370;-64
2023/01/30 13:52:17;;;;;;;8.40;3.58;;;;;;;1.63;100.00;100810.72;5052178;28;20037;-64
2023/01/30 13:55:09;;;;;;;5.70;3.33;;;;;;;1.65;100.00;100810.59;5054611;28;20044;-63
2023/01/30 13:57:54;;;;;;;5.20;3.60;;;;;;;1.62;100.00;100820.34;5053136;28;20037;-64
2023/01/30 14:00:30;;;;;;;5.45;3.03;;;;;;;1.62;100.00;100825.59;5053988;28;20505;-64
2023/01/30 14:03:04;;;;;;;6.80;3.50;;;;;;;1.71;100.00;100826.78;5054637;28;20124;-63
2023/01/30 14:06:01;;;;;;;8.73;3.38;;;;;;;1.68;100.00;100824.34;5054861;28;20063;-64
2023/01/30 14:08:29;;;;;;;6.15;3.80;;;;;;;1.62;100.00;100843.16;5054174;28;20033;-64
2023/01/30 14:10:56;;;;;;;7.38;3.83;;;;;;;1.58;100.00;100844.31;5054481;28;20041;-63
2023/01/30 14:13:29;;;;;;;7.47;4.05;;;;;;;1.58;100.00;100844.31;5054607;28;20056;-64
2023/01/30 14:16:01;;;;;;;4.00;3.05;;;;;;;1.65;100.00;100844.75;5054864;28;20029;-64
2023/01/30 14:18:32;;;;;;;5.13;3.33;;;;;;;1.69;100.00;100833.91;5053181;28;20505;-63
2023/01/30 14:21:19;;;;;;;4.72;2.90;;;;;;;1.70;100.00;100835.63;5054551;28;20065;-63
2023/01/30 14:24:00;;;;;;;8.82;3.75;;;;;;;1.72;100.00;100836.34;5054779;28;20493;-64
2023/01/30 14:26:47;;;;;;;6.22;3.25;;;;;;;1.69;100.00;100833.91;5054608;28;20048;-64
2023/01/30 14:29:37;;;;;;;7.10;3.72;;;;;;;1.70;100.00;100830.38;5054599;28;20033;-64
2023/01/30 14:32:12;;;;;;;5.80;3.15;;;;;;;1.75;100.00;100822.16;5054468;28;20036;-63
2023/01/30 14:35:00;;;;;;;5.97;3.40;;;;;;;1.75;100.00;100841.38;5054482;28;20123;-63
2023/01/30 14:37:45;;;;;;;7.82;3.85;;;;;;;1.76;100.00;100842.22;5054268;28;20083;-63
2023/01/30 14:40:20;;;;;;;5.18;3.00;;;;;;;1.76;100.00;100850.09;5036685;28;20041;-63
2023/01/30 14:43:11;;;;;;;6.63;3.58;;;;;;;1.77;100.00;100849.19;5054361;28;20048;-64
2023/01/30 14:45:51;;;;;;;6.05;3.40;;;;;;;1.84;100.00;100858.34;5054123;28;20037;-64
2023/01/30 14:49:03;;;;;;;3.35;2.78;;;;;;;1.93;100.00;100843.72;5054022;28;20032;-64
2023/01/30 14:51:38;;;;;;;4.90;2.42;;;;;;;1.97;100.00;100834.72;4953718;29;20050;-63
2023/01/30 14:54:12;;;;;;;6.13;3.20;;;;;;;2.01;100.00;100841.41;5046642;28;20068;-61
2023/01/30 14:56:57;;;;;;;4.90;3.42;;;;;;;2.03;100.00;100855.31;5036066;28;20044;-62
2023/01/30 14:59:31;;;;;;;5.47;3.17;;;;;;;2.11;100.00;100853.84;5053949;28;20483;-60
2023/01/30 15:02:12;;;;;;;5.18;2.70;;;;;;;2.13;100.00;100845.84;5054068;28;20047;-63
2023/01/30 15:04:43;;;;;;;5.07;3.47;;;;;;;2.19;100.00;100861.19;5054680;28;20044;-63
2023/01/30 15:07:16;;;;;;;5.35;3.53;;;;;;;2.26;100.00;100864.25;5054342;28;20033;-62
2023/01/30 15:09:50;;;;;;;6.38;3.28;;;;;;;2.26;100.00;100872.97;5053880;28;20037;-63
2023/01/30 15:12:31;;;;;;;8.90;3.85;;;;;;;2.32;100.00;100872.56;5053645;28;20036;-61
2023/01/30 15:15:05;;;;;;;4.97;3.58;;;;;;;2.36;100.00;100874.06;5053640;28;20037;-64
2023/01/30 15:17:44;;;;;;;5.18;3.22;;;;;;;2.37;100.00;100888.88;5053243;28;20048;-63
2023/01/30 15:20:20;;;;;;;4.13;3.03;;;;;;;2.39;100.00;100892.22;5053599;28;20481;-62
2023/01/30 15:23:02;;;;;;;4.90;3.05;;;;;;;2.39;100.00;100889.59;5053439;28;20043;-63
2023/01/30 15:25:46;;;;;;;4.82;2.60;;;;;;;2.43;100.00;100885.00;5053512;28;20033;-60
2023/01/30 15:28:36;;;;;;;5.13;3.35;;;;;;;2.44;100.00;100882.25;5035687;28;20032;-58
2023/01/30 15:31:12;;;;;;;3.60;2.60;;;;;;;2.53;100.00;100895.69;5053598;28;20439;-60
2023/01/30 15:33:52;;;;;;;6.15;3.42;;;;;;;2.51;100.00;100901.06;5053466;28;20055;-62
2023/01/30 15:36:24;;;;;;;4.28;2.88;;;;;;;2.53;100.00;100898.31;5053212;28;20049;-61
2023/01/30 15:39:05;;;;;;;5.05;3.72;;;;;;;2.49;100.00;100881.09;5035130;28;20047;-57
2023/01/30 15:41:37;;;;;;;4.18;2.97;;;;;;;2.52;100.00;100886.13;5053282;28;20132;-57
2023/01/30 15:44:20;;;;;;;6.00;3.15;;;;;;;2.44;100.00;100890.13;5053278;28;20089;-59
2023/01/30 15:46:52;;;;;;;5.03;2.42;;;;;;;2.48;100.00;100897.81;5053192;28;20072;-57
2023/01/30 15:49:35;;;;;;;7.00;3.42;;;;;;;2.42;100.00;100897.28;5052779;28;20047;-60
2023/01/30 15:52:06;;;;;;;5.03;3.00;;;;;;;2.47;100.00;100906.63;5053132;28;20037;-58
2023/01/30 15:54:31;;;;;;;6.25;3.05;;;;;;;2.45;100.00;100909.38;5052903;28;20149;-58
2023/01/30 15:56:58;;;;;;;6.05;3.70;;;;;;;2.41;100.00;100919.28;5052758;28;20477;-60
2023/01/30 15:59:27;;;;;;;7.88;3.08;;;;;;;2.37;100.00;100930.09;5052675;28;20549;-60
2023/01/30 16:02:13;;;;;;;9.05;3.55;;;;;;;2.40;100.00;100925.47;5052823;28;20040;-60
2023/01/30 16:04:39;;;;;;;6.70;4.03;;;;;;;2.42;100.00;100928.00;5052320;28;20033;-61
2023/01/30 16:07:34;;;;;;;3.80;2.65;;;;;;;2.40;100.00;100935.16;5052294;28;20033;-59
2023/01/30 16:09:59;;;;;;;5.18;3.13;;;;;;;2.42;100.00;100931.47;5031458;28;20480;-60
2023/01/30 16:12:29;;;;;;;5.90;3.20;;;;;;;2.38;100.00;100935.25;5052577;28;20112;-60
2023/01/30 16:14:57;;;;;;;6.93;3.47;;;;;;;2.38;100.00;100947.56;5052683;28;20040;-59
2023/01/30 16:17:30;;;;;;;4.82;4.05;;;;;;;2.40;100.00;100956.19;5052253;28;20033;-60
2023/01/30 16:19:58;;;;;;;3.67;2.80;;;;;;;2.40;100.00;100951.75;5052542;28;20037;-61
2023/01/30 16:22:26;;;;;;;4.57;3.22;;;;;;;2.28;100.00;100935.97;5052323;28;20456;-62
2023/01/30 16:24:54;;;;;;;3.70;2.70;;;;;;;2.35;100.00;100953.03;5052482;28;20064;-61
2023/01/30 16:27:31;;;;;;;6.07;3.47;;;;;;;2.31;100.00;100955.03;5052068;28;20091;-62
2023/01/30 16:30:03;;;;;;;4.35;3.20;;;;;;;2.28;100.00;100949.97;5052485;28;20040;-59
2023/01/30 16:32:30;;;;;;;5.65;3.72;;;;;;;2.32;100.00;100956.69;5052229;28;20037;-63
2023/01/30 16:35:15;;;;;;;7.88;3.38;;;;;;;2.25;100.00;100958.06;5052048;28;20094;-64
2023/01/30 16:37:40;;;;;;;5.05;3.22;;;;;;;2.28;100.00;100964.88;5052197;28;20056;-63
2023/01/30 16:40:20;;;;;;;4.53;2.80;;;;;;;2.29;100.00;100972.69;5053083;28;20471;-65
2023/01/30 16:42:57;;;;;;;5.25;2.70;;;;;;;2.31;100.00;100981.31;5052484;28;20090;-65
2023/01/30 16:45:35;;;;;;;5.22;3.53;;;;;;;2.30;100.00;100986.69;5052266;28;20033;-66
2023/01/30 16:48:15;;;;;;;4.90;2.40;;;;;;;2.28;100.00;100996.44;5051974;28;20033;-63
2023/01/30 16:50:42;;;;;;;6.32;4.00;;;;;;;2.28;100.00;100994.69;5052045;28;20111;-62
2023/01/30 16:53:14;;;;;;;6.57;3.30;;;;;;;2.30;100.00;100997.19;5052124;28;20045;-62
2023/01/30 16:55:53;;;;;;;4.68;3.05;;;;;;;2.30;100.00;100998.03;5051970;28;20375;-62
2023/01/30 16:58:18;;;;;;;4.07;2.53;;;;;;;2.34;100.00;100998.66;5051834;28;20116;-62
2023/01/30 17:00:49;;;;;;;5.57;3.20;;;;;;;2.29;100.00;100998.16;5050812;28;20562;-63
2023/01/30 17:03:23;;;;;;;7.25;4.30;;;;;;;2.31;100.00;101007.59;5050775;28;20033;-62
2023/01/30 17:05:49;;;;;;;6.45;3.90;;;;;;;2.26;100.00;101014.94;5051991;28;20482;-63
2023/01/30 17:08:30;;;;;;;7.50;3.55;;;;;;;2.30;100.00;101003.31;5051539;28;20082;-62
2023/01/30 17:11:02;;;;;;;8.18;3.85;;;;;;;2.34;100.00;100999.50;5051844;28;20037;-62
2023/01/30 17:13:41;;;;;;;9.38;4.57;;;;;;;2.36;100.00;100988.91;5051838;28;20512;-62
2023/01/30 17:16:26;;;;;;;5.32;2.83;;;;;;;2.37;100.00;100996.69;5051703;28;20040;-63
2023/01/30 17:18:55;;;;;;;6.05;3.42;;;;;;;2.38;100.00;100997.53;5051298;28;20037;-64